Time;durP1;ratioP1;P1;durP2;ratioP2;P2;SDS_P1;SDS_P2;PMS_P1;PMS_P2;Temp;Humidity;BMP_temperature;BMP_pressure;BME280_temperature;BME280_humidity;BME280_pressure;Samples;Min_cycle;Max_cycle;Signal;HPM_P1;HPM_P2
2022/11/08 00:02:40;;;;;;;38.22;19.40;;;;;;;;;;5021262;28;20065;-77
2022/11/08 00:14:41;;;;;;;30.63;18.13;;;;;;;;;;5022795;28;20049;-76
2022/11/08 00:17:29;;;;;;;37.20;19.73;;;;;;;;;;5015237;28;20068;-77
2022/11/08 00:20:15;;;;;;;34.00;18.90;;;;;;;;;;5022628;28;20042;-77
2022/11/08 00:23:01;;;;;;;33.63;19.45;;;;;;;;;;5021598;28;20054;-77
2022/11/08 00:25:52;;;;;;;29.13;18.58;;;;;;;;;;5023968;28;20472;-77
2022/11/08 00:28:40;;;;;;;31.50;17.70;;;;;;;;;;5015459;28;20041;-77
2022/11/08 00:31:26;;;;;;;30.58;18.17;;;;;;;;;;5015965;28;20050;-77
2022/11/08 00:34:11;;;;;;;31.45;19.13;;;;;;;;;;5015409;28;20045;-76
2022/11/08 00:36:57;;;;;;;36.45;20.17;;;;;;;;;;5014740;28;20396;-78
2022/11/08 00:39:43;;;;;;;39.30;22.00;;;;;;;;;;5015561;28;20388;-78
2022/11/08 00:42:28;;;;;;;35.40;20.92;;;;;;;;;;5015040;28;20046;-77
2022/11/08 00:45:14;;;;;;;38.05;20.55;;;;;;;;;;5015176;28;20046;-78
2022/11/08 00:47:59;;;;;;;35.63;20.48;;;;;;;;;;5014834;28;20041;-77
2022/11/08 00:50:45;;;;;;;34.92;20.13;;;;;;;;;;5014935;28;20487;-77
2022/11/08 00:53:31;;;;;;;35.47;20.92;;;;;;;;;;5021463;28;20049;-78
2022/11/08 00:56:17;;;;;;;34.10;20.73;;;;;;;;;;5014588;28;20053;-78
2022/11/08 00:59:02;;;;;;;37.90;21.85;;;;;;;;;;5015953;28;20368;-77
2022/11/08 01:01:47;;;;;;;35.80;21.85;;;;;;;;;;5021886;28;20046;-77
2022/11/08 01:04:33;;;;;;;41.30;22.23;;;;;;;;;;5014658;28;20042;-76
2022/11/08 01:07:18;;;;;;;41.22;24.52;;;;;;;;;;5014943;28;20042;-77
2022/11/08 01:10:05;;;;;;;46.80;24.70;;;;;;;;;;5014445;28;20046;-77
2022/11/08 01:12:50;;;;;;;42.38;24.13;;;;;;;;;;5014610;28;20054;-77
2022/11/08 01:15:37;;;;;;;48.95;24.65;;;;;;;;;;5020607;28;20049;-77
2022/11/08 01:18:23;;;;;;;52.83;24.27;;;;;;;;;;5014068;28;20483;-77
2022/11/08 01:21:09;;;;;;;47.20;24.02;;;;;;;;;;5014552;28;20049;-77
2022/11/08 01:23:54;;;;;;;47.15;24.92;;;;;;;;;;5014013;28;20046;-77
2022/11/08 01:26:40;;;;;;;43.30;23.88;;;;;;;;;;5014246;28;20046;-78
2022/11/08 01:29:25;;;;;;;43.08;23.67;;;;;;;;;;5014812;28;20042;-76
2022/11/08 01:32:10;;;;;;;42.53;23.58;;;;;;;;;;5013951;28;20053;-77
2022/11/08 01:34:55;;;;;;;42.58;23.33;;;;;;;;;;5014760;28;20050;-76
2022/11/08 01:37:41;;;;;;;43.72;23.00;;;;;;;;;;5014262;28;20047;-76
2022/11/08 01:40:27;;;;;;;43.70;22.70;;;;;;;;;;5014164;28;20046;-76
2022/11/08 01:43:28;;;;;;;41.17;22.42;;;;;;;;;;5016060;28;20041;-76
2022/11/08 01:46:31;;;;;;;42.22;22.73;;;;;;;;;;5013567;28;20041;-76
2022/11/08 01:49:38;;;;;;;44.38;22.70;;;;;;;;;;5020683;28;20037;-77
2022/11/08 01:52:30;;;;;;;39.42;22.48;;;;;;;;;;5020146;28;20042;-76
2022/11/08 01:55:15;;;;;;;40.00;22.85;;;;;;;;;;5013936;28;20046;-77
2022/11/08 01:58:14;;;;;;;42.78;24.02;;;;;;;;;;5014024;28;20045;-77
2022/11/08 02:01:01;;;;;;;50.63;23.00;;;;;;;;;;5019103;28;20045;-77
2022/11/08 02:03:46;;;;;;;37.70;21.88;;;;;;;;;;5013592;28;20042;-77
2022/11/08 02:06:34;;;;;;;43.28;22.75;;;;;;;;;;5013450;28;20054;-76
2022/11/08 02:09:20;;;;;;;41.40;22.67;;;;;;;;;;5020327;28;20038;-77
2022/11/08 02:12:08;;;;;;;42.33;22.77;;;;;;;;;;5013970;28;20045;-76
2022/11/08 02:14:53;;;;;;;38.05;22.33;;;;;;;;;;5013451;28;20049;-76
2022/11/08 02:17:39;;;;;;;40.05;23.25;;;;;;;;;;5020333;28;20400;-77
2022/11/08 02:20:25;;;;;;;42.28;23.05;;;;;;;;;;5013563;28;20042;-77
2022/11/08 02:23:18;;;;;;;40.35;21.83;;;;;;;;;;5018897;28;20400;-77
2022/11/08 02:26:05;;;;;;;39.33;21.60;;;;;;;;;;5013877;28;20054;-79
2022/11/08 02:28:50;;;;;;;45.92;23.92;;;;;;;;;;5013963;28;20080;-77
2022/11/08 02:31:36;;;;;;;36.58;21.70;;;;;;;;;;5020205;28;20041;-78
2022/11/08 02:34:25;;;;;;;40.22;22.45;;;;;;;;;;5013949;28;20484;-78
2022/11/08 02:37:15;;;;;;;43.55;24.40;;;;;;;;;;5013356;28;20046;-77
2022/11/08 02:40:00;;;;;;;39.55;22.27;;;;;;;;;;5016045;28;20034;-77
2022/11/08 02:42:46;;;;;;;41.50;23.05;;;;;;;;;;5017019;28;20423;-78
2022/11/08 02:45:31;;;;;;;40.75;21.98;;;;;;;;;;5017136;28;20050;-78
2022/11/08 02:48:18;;;;;;;37.22;21.83;;;;;;;;;;5017790;28;20042;-77
2022/11/08 02:51:04;;;;;;;38.55;21.67;;;;;;;;;;5016822;28;20061;-77
2022/11/08 02:53:49;;;;;;;38.03;22.33;;;;;;;;;;5017686;28;20054;-77
2022/11/08 02:56:35;;;;;;;37.45;23.05;;;;;;;;;;5016839;28;20399;-77
2022/11/08 02:59:21;;;;;;;42.45;22.60;;;;;;;;;;5017181;28;20049;-77
2022/11/08 03:02:06;;;;;;;42.22;22.25;;;;;;;;;;5017532;28;20041;-76
2022/11/08 03:04:52;;;;;;;41.30;22.48;;;;;;;;;;5015622;28;20045;-77
2022/11/08 03:07:38;;;;;;;39.28;22.20;;;;;;;;;;5017170;28;20053;-77
2022/11/08 03:10:24;;;;;;;38.75;21.33;;;;;;;;;;5023349;28;20033;-77
2022/11/08 03:13:09;;;;;;;37.10;20.90;;;;;;;;;;5023639;28;20046;-77
2022/11/08 03:15:55;;;;;;;37.65;21.48;;;;;;;;;;5016979;28;20050;-77
2022/11/08 03:18:41;;;;;;;38.47;19.73;;;;;;;;;;5016415;28;20041;-77
2022/11/08 03:21:26;;;;;;;36.47;20.05;;;;;;;;;;5017037;28;20495;-77
2022/11/08 03:24:12;;;;;;;38.97;19.48;;;;;;;;;;5023160;28;20041;-77
2022/11/08 03:26:57;;;;;;;32.83;18.70;;;;;;;;;;5016573;28;20053;-78
2022/11/08 03:29:46;;;;;;;28.95;17.35;;;;;;;;;;5016729;28;20038;-77
2022/11/08 03:32:31;;;;;;;36.58;19.25;;;;;;;;;;5016342;28;20045;-78
2022/11/08 03:35:16;;;;;;;30.80;17.73;;;;;;;;;;5017177;28;20042;-77
2022/11/08 03:38:02;;;;;;;34.17;19.55;;;;;;;;;;5016777;28;20054;-77
2022/11/08 03:40:47;;;;;;;36.33;19.75;;;;;;;;;;5022448;28;20045;-77
2022/11/08 03:43:33;;;;;;;39.15;22.10;;;;;;;;;;5023085;28;20391;-77
2022/11/08 03:46:18;;;;;;;36.72;21.38;;;;;;;;;;5019539;28;20564;-76
2022/11/08 03:49:03;;;;;;;38.65;19.92;;;;;;;;;;5022812;28;20050;-76
2022/11/08 03:51:49;;;;;;;41.70;20.80;;;;;;;;;;5015198;28;20042;-77
2022/11/08 03:54:34;;;;;;;35.50;20.52;;;;;;;;;;5022166;28;20391;-77
2022/11/08 03:57:20;;;;;;;36.78;20.27;;;;;;;;;;5017108;28;20046;-77
2022/11/08 04:00:08;;;;;;;41.53;21.05;;;;;;;;;;5022318;28;20041;-77
2022/11/08 04:03:01;;;;;;;39.13;21.05;;;;;;;;;;5015559;28;20042;-77
2022/11/08 04:05:46;;;;;;;35.45;19.33;;;;;;;;;;5022848;28;20042;-76
2022/11/08 04:08:32;;;;;;;27.90;16.80;;;;;;;;;;5015420;28;20050;-77
2022/11/08 04:21:17;;;;;;;28.70;16.60;;;;;;;;;;5015731;28;20034;-77
2022/11/08 04:23:35;;;;;;;27.95;16.60;;;;;;;;;;5021512;28;20045;-76
2022/11/08 04:26:21;;;;;;;26.75;16.73;;;;;;;;;;5015615;28;20384;-77
2022/11/08 04:29:07;;;;;;;34.25;17.92;;;;;;;;;;5015209;28;20492;-76
2022/11/08 04:31:53;;;;;;;31.98;18.60;;;;;;;;;;5021996;28;20407;-77
2022/11/08 04:34:38;;;;;;;29.08;17.38;;;;;;;;;;5015745;28;20042;-76
2022/11/08 04:37:23;;;;;;;30.83;17.02;;;;;;;;;;5021370;28;20395;-77
2022/11/08 04:40:09;;;;;;;31.13;18.00;;;;;;;;;;5015307;28;20045;-77
2022/11/08 04:42:55;;;;;;;33.38;19.38;;;;;;;;;;5016529;28;20050;-77
2022/11/08 04:45:40;;;;;;;42.08;21.95;;;;;;;;;;5015075;28;20403;-77
2022/11/08 04:48:25;;;;;;;51.92;23.85;;;;;;;;;;5021783;28;20042;-76
2022/11/08 04:51:12;;;;;;;35.40;22.02;;;;;;;;;;5014624;28;20476;-77
2022/11/08 04:53:59;;;;;;;53.60;22.90;;;;;;;;;;5015150;28;20042;-77
2022/11/08 04:56:45;;;;;;;44.63;23.63;;;;;;;;;;5014930;28;20045;-77
2022/11/08 04:59:30;;;;;;;45.40;22.98;;;;;;;;;;5014704;28;20042;-77
2022/11/08 05:02:16;;;;;;;41.03;24.20;;;;;;;;;;5020361;28;20042;-77
2022/11/08 05:05:00;;;;;;;53.08;26.38;;;;;;;;;;5020999;28;20038;-76
2022/11/08 05:07:45;;;;;;;67.05;32.75;;;;;;;;;;5015007;28;20042;-76
2022/11/08 05:10:31;;;;;;;59.78;32.40;;;;;;;;;;5014848;28;20041;-76
2022/11/08 05:13:16;;;;;;;51.97;31.40;;;;;;;;;;5014189;28;20046;-75
2022/11/08 05:16:05;;;;;;;57.90;31.08;;;;;;;;;;5015004;28;20046;-76
2022/11/08 05:18:49;;;;;;;63.03;31.58;;;;;;;;;;5020580;28;20050;-77
2022/11/08 05:24:39;;;;;;;62.05;34.03;;;;;;;;;;5020690;28;20038;-77
2022/11/08 05:27:24;;;;;;;62.58;33.53;;;;;;;;;;5014176;28;20395;-77
2022/11/08 05:30:10;;;;;;;65.45;33.75;;;;;;;;;;5014492;28;20387;-77
2022/11/08 05:32:55;;;;;;;60.75;30.58;;;;;;;;;;5013891;28;20046;-77
2022/11/08 05:35:41;;;;;;;58.92;29.65;;;;;;;;;;5018380;28;20046;-76
2022/11/08 05:38:26;;;;;;;53.65;31.23;;;;;;;;;;5014659;28;20046;-77
2022/11/08 05:41:19;;;;;;;57.70;29.15;;;;;;;;;;5013847;28;20050;-77
2022/11/08 05:44:05;;;;;;;71.57;31.02;;;;;;;;;;5013949;28;20483;-77
2022/11/08 05:46:50;;;;;;;55.50;29.08;;;;;;;;;;5016306;28;20399;-76
2022/11/08 05:49:36;;;;;;;62.40;30.92;;;;;;;;;;5013785;28;20049;-76
2022/11/08 05:52:23;;;;;;;61.45;29.65;;;;;;;;;;5012973;28;20076;-76
2022/11/08 05:55:08;;;;;;;64.20;29.08;;;;;;;;;;5013525;28;20499;-77
2022/11/08 05:57:54;;;;;;;57.22;28.55;;;;;;;;;;5013721;28;20042;-76
2022/11/08 06:00:39;;;;;;;57.90;28.83;;;;;;;;;;5020664;28;20050;-76
2022/11/08 06:03:24;;;;;;;60.95;29.58;;;;;;;;;;5013099;28;20049;-76
2022/11/08 06:06:18;;;;;;;53.45;27.80;;;;;;;;;;5014168;28;20038;-76
2022/11/08 06:09:03;;;;;;;51.80;25.92;;;;;;;;;;5013346;28;20042;-76
2022/11/08 06:11:49;;;;;;;57.15;26.70;;;;;;;;;;5015677;28;20042;-77
2022/11/08 06:14:34;;;;;;;53.65;26.95;;;;;;;;;;5012073;28;20427;-76
2022/11/08 06:17:19;;;;;;;55.55;26.58;;;;;;;;;;5013053;28;20038;-77
2022/11/08 06:20:06;;;;;;;50.22;25.23;;;;;;;;;;5013929;28;20046;-76
2022/11/08 06:22:53;;;;;;;54.47;27.35;;;;;;;;;;5013574;28;20050;-77
2022/11/08 06:25:39;;;;;;;51.38;25.33;;;;;;;;;;5013025;28;20037;-76
2022/11/08 06:28:24;;;;;;;49.60;26.23;;;;;;;;;;5020516;28;20046;-76
2022/11/08 06:31:09;;;;;;;55.72;25.88;;;;;;;;;;5017434;28;20049;-77
2022/11/08 06:33:54;;;;;;;51.08;25.42;;;;;;;;;;5013876;28;20037;-76
2022/11/08 06:36:41;;;;;;;60.42;26.88;;;;;;;;;;5019126;28;20495;-77
2022/11/08 06:39:26;;;;;;;55.28;27.42;;;;;;;;;;5019827;28;20046;-76
2022/11/08 06:42:13;;;;;;;55.20;26.02;;;;;;;;;;5012683;28;20042;-76
2022/11/08 06:44:59;;;;;;;54.38;25.15;;;;;;;;;;5019338;28;20042;-76
2022/11/08 06:47:44;;;;;;;51.10;24.42;;;;;;;;;;5013413;28;20046;-77
2022/11/08 06:50:32;;;;;;;53.67;26.00;;;;;;;;;;5019118;28;20491;-77
2022/11/08 06:53:17;;;;;;;62.08;27.73;;;;;;;;;;5019613;28;20057;-77
2022/11/08 06:56:03;;;;;;;57.40;29.02;;;;;;;;;;5020767;28;20046;-76
2022/11/08 06:58:50;;;;;;;55.10;28.20;;;;;;;;;;5013254;28;20038;-76
2022/11/08 07:01:36;;;;;;;53.13;27.95;;;;;;;;;;5013244;28;20046;-76
2022/11/08 07:04:22;;;;;;;52.15;26.83;;;;;;;;;;5013410;28;20042;-75
2022/11/08 07:07:07;;;;;;;54.72;27.20;;;;;;;;;;5010818;28;20065;-77
2022/11/08 07:09:53;;;;;;;50.00;27.38;;;;;;;;;;5018055;28;20455;-77
2022/11/08 07:12:39;;;;;;;55.15;30.05;;;;;;;;;;5012278;28;20050;-77
2022/11/08 07:15:24;;;;;;;58.67;29.48;;;;;;;;;;5019525;28;20050;-77
2022/11/08 07:18:12;;;;;;;48.83;26.63;;;;;;;;;;5019679;28;20050;-77
2022/11/08 07:21:01;;;;;;;54.50;29.63;;;;;;;;;;5019059;28;20046;-77
2022/11/08 07:23:47;;;;;;;55.90;28.20;;;;;;;;;;5018689;28;20041;-77
2022/11/08 07:26:33;;;;;;;55.53;28.35;;;;;;;;;;5014315;28;20041;-77
2022/11/08 07:29:18;;;;;;;55.83;28.30;;;;;;;;;;5015921;28;20050;-78
2022/11/08 07:32:04;;;;;;;50.28;27.13;;;;;;;;;;5016445;28;20041;-77
2022/11/08 07:34:49;;;;;;;56.00;28.25;;;;;;;;;;5015567;28;20499;-75
2022/11/08 07:37:35;;;;;;;61.88;29.60;;;;;;;;;;5016170;28;20451;-75
2022/11/08 07:40:21;;;;;;;52.20;28.40;;;;;;;;;;5017586;28;20391;-76
2022/11/08 07:43:06;;;;;;;52.15;28.10;;;;;;;;;;5015748;28;20049;-76
2022/11/08 07:45:54;;;;;;;55.85;28.75;;;;;;;;;;5016177;28;20042;-76
2022/11/08 07:48:39;;;;;;;50.30;28.08;;;;;;;;;;5016710;28;20049;-86
2022/11/08 07:51:24;;;;;;;59.50;30.52;;;;;;;;;;5022261;28;20049;-80
2022/11/08 07:54:09;;;;;;;56.88;30.58;;;;;;;;;;5016130;28;20049;-81
2022/11/08 07:56:55;;;;;;;55.58;31.08;;;;;;;;;;5015618;28;20046;-78
2022/11/08 07:59:40;;;;;;;62.95;32.58;;;;;;;;;;5016126;28;20050;-78
2022/11/08 08:02:26;;;;;;;61.25;34.92;;;;;;;;;;5015500;28;20042;-78
2022/11/08 08:05:11;;;;;;;68.97;36.92;;;;;;;;;;5022344;28;20050;-78
2022/11/08 08:08:01;;;;;;;61.72;33.85;;;;;;;;;;5015789;28;20046;-79
2022/11/08 08:10:47;;;;;;;62.10;30.83;;;;;;;;;;5015345;28;20053;-79
2022/11/08 08:13:31;;;;;;;67.30;34.40;;;;;;;;;;5016194;28;20054;-80
2022/11/08 08:16:16;;;;;;;60.15;34.42;;;;;;;;;;5016273;28;20042;-79
2022/11/08 08:19:02;;;;;;;50.67;30.10;;;;;;;;;;5015571;28;20050;-79
2022/11/08 08:21:48;;;;;;;53.55;29.63;;;;;;;;;;5015642;28;20045;-78
2022/11/08 08:24:34;;;;;;;52.67;30.48;;;;;;;;;;5018992;28;20041;-79
2022/11/08 08:27:19;;;;;;;58.47;30.70;;;;;;;;;;5015735;28;20050;-79
2022/11/08 08:30:05;;;;;;;55.90;29.83;;;;;;;;;;5015851;28;20042;-79
2022/11/08 08:32:51;;;;;;;66.45;36.05;;;;;;;;;;5015079;28;20483;-78
2022/11/08 08:35:37;;;;;;;60.88;32.88;;;;;;;;;;5014455;28;20034;-78
2022/11/08 08:38:23;;;;;;;76.00;37.10;;;;;;;;;;5014323;28;20046;-79
2022/11/08 08:41:09;;;;;;;70.35;35.63;;;;;;;;;;5015576;28;20050;-79
2022/11/08 08:43:54;;;;;;;68.07;36.25;;;;;;;;;;5015106;28;20487;-80
2022/11/08 08:46:40;;;;;;;72.75;38.22;;;;;;;;;;5014438;28;20045;-80
2022/11/08 08:49:25;;;;;;;73.57;40.45;;;;;;;;;;5021867;28;20042;-80
2022/11/08 08:52:11;;;;;;;65.15;36.53;;;;;;;;;;5014870;28;20395;-80
2022/11/08 08:54:56;;;;;;;60.63;33.00;;;;;;;;;;5015117;28;20049;-84
2022/11/08 08:57:45;;;;;;;64.38;34.95;;;;;;;;;;5022969;28;20390;-85
2022/11/08 09:00:31;;;;;;;73.95;34.45;;;;;;;;;;5020937;28;20041;-84
2022/11/08 09:03:17;;;;;;;59.65;32.72;;;;;;;;;;5021985;28;20037;-84
2022/11/08 09:06:02;;;;;;;67.30;33.13;;;;;;;;;;5015649;28;20041;-85
2022/11/08 09:08:48;;;;;;;67.80;33.67;;;;;;;;;;5022600;28;20049;-84
2022/11/08 09:11:34;;;;;;;57.38;31.67;;;;;;;;;;5015127;28;20050;-82
2022/11/08 09:14:19;;;;;;;67.97;32.25;;;;;;;;;;5014833;28;20046;-84
2022/11/08 09:17:05;;;;;;;62.17;33.63;;;;;;;;;;5015208;28;20046;-82
2022/11/08 09:19:50;;;;;;;57.58;32.20;;;;;;;;;;5015876;28;20042;-80
2022/11/08 09:22:37;;;;;;;56.90;31.33;;;;;;;;;;5014356;28;20038;-80
2022/11/08 09:25:23;;;;;;;54.47;32.53;;;;;;;;;;5013646;28;20046;-80
2022/11/08 09:28:08;;;;;;;50.40;28.95;;;;;;;;;;5020887;28;20046;-81
2022/11/08 09:30:55;;;;;;;51.90;29.13;;;;;;;;;;5014374;28;20045;-78
2022/11/08 09:33:40;;;;;;;56.38;30.52;;;;;;;;;;5021074;28;20045;-80
2022/11/08 09:36:26;;;;;;;49.63;27.95;;;;;;;;;;5020577;28;20042;-85
2022/11/08 09:39:12;;;;;;;51.38;27.25;;;;;;;;;;5021188;28;20046;-90
2022/11/08 09:42:24;;;;;;;47.88;29.50;;;;;;;;;;5014243;28;20310;-85
2022/11/08 09:45:15;;;;;;;50.83;29.90;;;;;;;;;;5013642;28;20045;-81
2022/11/08 09:48:04;;;;;;;50.75;28.92;;;;;;;;;;5014483;28;20475;-85
2022/11/08 09:50:53;;;;;;;50.17;29.65;;;;;;;;;;5019286;28;20392;-86
2022/11/08 09:53:51;;;;;;;49.25;28.73;;;;;;;;;;5023804;28;20033;-86
2022/11/08 09:56:37;;;;;;;48.90;26.42;;;;;;;;;;5013945;28;20050;-86
2022/11/08 09:59:36;;;;;;;61.10;30.83;;;;;;;;;;5016364;28;20049;-86
2022/11/08 10:02:23;;;;;;;46.90;27.83;;;;;;;;;;5015443;28;20054;-81
2022/11/08 10:05:14;;;;;;;51.20;29.40;;;;;;;;;;5019689;28;20053;-79
2022/11/08 10:08:13;;;;;;;48.50;25.15;;;;;;;;;;5014112;28;20467;-81
2022/11/08 10:11:10;;;;;;;44.13;25.83;;;;;;;;;;5013465;28;20395;-81
2022/11/08 10:14:27;;;;;;;49.38;27.88;;;;;;;;;;5021337;28;20038;-81
2022/11/08 10:17:33;;;;;;;46.85;25.23;;;;;;;;;;5020324;28;20081;-81
2022/11/08 10:20:27;;;;;;;44.90;26.58;;;;;;;;;;5020434;28;20050;-80
2022/11/08 10:23:20;;;;;;;40.38;24.60;;;;;;;;;;5013990;28;20518;-81
2022/11/08 10:26:15;;;;;;;45.72;25.27;;;;;;;;;;5013264;28;20054;-81
2022/11/08 10:29:16;;;;;;;40.45;23.52;;;;;;;;;;5013885;28;20054;-81
2022/11/08 10:32:22;;;;;;;38.80;24.13;;;;;;;;;;5018827;28;20053;-81
2022/11/08 10:35:10;;;;;;;37.65;21.40;;;;;;;;;;5013653;28;20054;-81
2022/11/08 10:37:58;;;;;;;34.17;21.48;;;;;;;;;;5016319;28;20038;-81
2022/11/08 10:40:56;;;;;;;34.13;20.27;;;;;;;;;;5012155;28;20050;-81
2022/11/08 10:43:48;;;;;;;38.80;22.90;;;;;;;;;;5013748;28;20046;-82
2022/11/08 10:46:47;;;;;;;35.75;22.45;;;;;;;;;;5013123;28;20049;-82
2022/11/08 10:49:41;;;;;;;37.53;20.33;;;;;;;;;;5020438;28;20050;-82
2022/11/08 10:52:34;;;;;;;30.92;19.95;;;;;;;;;;5013530;28;20038;-81
2022/11/08 10:55:32;;;;;;;33.33;21.55;;;;;;;;;;5013259;28;20053;-81
2022/11/08 10:58:28;;;;;;;30.33;18.80;;;;;;;;;;5019996;28;20046;-81
2022/11/08 11:01:20;;;;;;;28.73;17.98;;;;;;;;;;5015728;28;20046;-81
2022/11/08 11:04:27;;;;;;;29.73;18.00;;;;;;;;;;5017631;28;20042;-81
2022/11/08 11:07:32;;;;;;;26.10;16.95;;;;;;;;;;5017141;28;20045;-81
2022/11/08 11:10:24;;;;;;;31.77;19.38;;;;;;;;;;5023675;28;20399;-81
2022/11/08 11:13:22;;;;;;;28.80;16.98;;;;;;;;;;5017033;28;20057;-80
2022/11/08 11:16:13;;;;;;;26.05;15.45;;;;;;;;;;5016429;28;20042;-80
2022/11/08 11:19:01;;;;;;;25.63;16.67;;;;;;;;;;5023760;28;20042;-82
2022/11/08 11:22:00;;;;;;;23.88;14.93;;;;;;;;;;5016701;28;20399;-81
2022/11/08 11:24:50;;;;;;;26.63;14.35;;;;;;;;;;5028635;28;20403;-81
2022/11/08 11:27:37;;;;;;;26.00;15.32;;;;;;;;;;5017669;28;20392;-80
2022/11/08 11:30:41;;;;;;;23.92;15.65;;;;;;;;;;5022690;28;20491;-81
2022/11/08 11:33:29;;;;;;;26.83;15.80;;;;;;;;;;5022042;28;20049;-81
2022/11/08 11:36:19;;;;;;;24.65;13.82;;;;;;;;;;5016266;28;20042;-81
2022/11/08 11:39:27;;;;;;;22.08;12.05;;;;;;;;;;5016973;28;20041;-81
2022/11/08 11:42:24;;;;;;;21.30;13.13;;;;;;;;;;5016841;28;20046;-81
2022/11/08 11:45:21;;;;;;;26.27;14.73;;;;;;;;;;5015923;28;20049;-81
2022/11/08 11:48:27;;;;;;;20.27;13.45;;;;;;;;;;5016523;28;20053;-80
2022/11/08 11:51:13;;;;;;;24.48;14.13;;;;;;;;;;5015975;28;20046;-80
2022/11/08 11:54:01;;;;;;;23.00;14.20;;;;;;;;;;5022923;28;20050;-81
2022/11/08 11:56:55;;;;;;;25.05;16.48;;;;;;;;;;5016349;28;20042;-80
2022/11/08 11:59:55;;;;;;;18.65;11.10;;;;;;;;;;5015907;28;20046;-81
2022/11/08 12:03:12;;;;;;;27.77;18.20;;;;;;;;;;5016351;28;20053;-80
2022/11/08 12:06:11;;;;;;;22.08;12.80;;;;;;;;;;5021770;28;20045;-80
2022/11/08 12:09:08;;;;;;;20.42;13.20;;;;;;;;;;5023118;28;20053;-80
2022/11/08 12:11:54;;;;;;;22.50;13.23;;;;;;;;;;5014646;28;20054;-80
2022/11/08 12:14:39;;;;;;;18.52;12.23;;;;;;;;;;5016091;28;20049;-80
2022/11/08 12:17:41;;;;;;;18.35;12.13;;;;;;;;;;5016039;28;20045;-80
2022/11/08 12:20:38;;;;;;;19.58;12.98;;;;;;;;;;5020986;28;20038;-80
2022/11/08 12:23:42;;;;;;;18.35;11.88;;;;;;;;;;5016018;28;20038;-80
2022/11/08 12:26:36;;;;;;;18.42;10.18;;;;;;;;;;5021941;28;20053;-80
2022/11/08 12:29:45;;;;;;;18.75;9.95;;;;;;;;;;5015585;28;20045;-81
2022/11/08 12:32:52;;;;;;;17.05;10.20;;;;;;;;;;5015625;28;20046;-80
2022/11/08 12:36:06;;;;;;;20.15;12.95;;;;;;;;;;5015414;28;20041;-80
2022/11/08 12:39:13;;;;;;;16.98;10.18;;;;;;;;;;5015498;28;20053;-80
2022/11/08 12:42:21;;;;;;;15.45;9.50;;;;;;;;;;5014874;28;20050;-80
2022/11/08 12:45:28;;;;;;;15.90;9.10;;;;;;;;;;5015488;28;20399;-80
2022/11/08 12:48:20;;;;;;;14.82;9.27;;;;;;;;;;5014843;28;20046;-81
2022/11/08 12:51:18;;;;;;;16.83;9.77;;;;;;;;;;5015250;28;20053;-80
2022/11/08 12:54:21;;;;;;;15.50;9.82;;;;;;;;;;5020801;28;20054;-81
2022/11/08 12:57:15;;;;;;;18.45;9.65;;;;;;;;;;5015080;28;20037;-80
2022/11/08 13:00:07;;;;;;;12.88;8.25;;;;;;;;;;5015707;28;20038;-81
2022/11/08 13:03:11;;;;;;;14.88;8.95;;;;;;;;;;5015007;28;20054;-81
2022/11/08 13:06:23;;;;;;;16.33;9.50;;;;;;;;;;5014829;28;20042;-82
2022/11/08 13:09:37;;;;;;;13.55;7.75;;;;;;;;;;5014656;28;20049;-81
2022/11/08 13:12:54;;;;;;;13.70;7.67;;;;;;;;;;5015026;28;20050;-82
2022/11/08 13:16:06;;;;;;;17.27;11.13;;;;;;;;;;5014342;28;20046;-81
2022/11/08 13:18:53;;;;;;;15.10;10.15;;;;;;;;;;5014626;28;20488;-82
2022/11/08 13:21:40;;;;;;;12.38;8.70;;;;;;;;;;5014592;28;20046;-81
2022/11/08 13:24:32;;;;;;;12.63;8.07;;;;;;;;;;5019117;28;20396;-80
2022/11/08 13:27:22;;;;;;;14.32;8.93;;;;;;;;;;5014536;28;20483;-80
2022/11/08 13:30:11;;;;;;;12.88;9.10;;;;;;;;;;5014499;28;20034;-80
2022/11/08 13:32:55;;;;;;;;;;;;;;;;;;5014743;28;20038;-80
2022/11/08 13:35:55;;;;;;;14.27;9.10;;;;;;;;;;5014659;28;19917;-82
2022/11/08 13:39:10;;;;;;;18.10;10.30;;;;;;;;;;5021788;28;20395;-82
2022/11/08 13:42:07;;;;;;;16.65;9.90;;;;;;;;;;5021099;28;20055;-82
2022/11/08 13:44:54;;;;;;;19.77;9.75;;;;;;;;;;5013702;28;20050;-82
2022/11/08 13:47:40;;;;;;;20.08;12.98;;;;;;;;;;5013866;28;20050;-81
2022/11/08 13:50:32;;;;;;;16.33;12.20;;;;;;;;;;5019940;28;20046;-81
2022/11/08 13:53:17;;;;;;;21.10;11.43;;;;;;;;;;5013907;28;20404;-81
2022/11/08 13:56:03;;;;;;;17.65;11.57;;;;;;;;;;5014278;28;20053;-82
2022/11/08 13:58:49;;;;;;;37.25;25.13;;;;;;;;;;5014104;28;20490;-81
2022/11/08 14:01:46;;;;;;;27.75;18.60;;;;;;;;;;5014743;28;20053;-81
2022/11/08 14:04:37;;;;;;;22.30;13.48;;;;;;;;;;5013635;28;20045;-81
2022/11/08 14:07:30;;;;;;;28.90;17.27;;;;;;;;;;5013849;28;20049;-81
2022/11/08 14:10:16;;;;;;;24.70;15.48;;;;;;;;;;5014223;28;20038;-81
2022/11/08 14:13:16;;;;;;;28.05;16.35;;;;;;;;;;5013649;28;20388;-81
2022/11/08 14:16:11;;;;;;;32.00;18.90;;;;;;;;;;5022195;28;20058;-84
2022/11/08 14:19:23;;;;;;;34.78;19.27;;;;;;;;;;5014242;28;20037;-80
2022/11/08 14:22:18;;;;;;;28.65;17.80;;;;;;;;;;5026838;28;20042;-84
2022/11/08 14:25:33;;;;;;;39.15;21.17;;;;;;;;;;5013911;28;20046;-81
2022/11/08 14:28:42;;;;;;;36.47;20.30;;;;;;;;;;5013247;28;20049;-82
2022/11/08 14:31:33;;;;;;;38.83;21.85;;;;;;;;;;5020700;28;20387;-82
2022/11/08 14:34:31;;;;;;;31.25;20.10;;;;;;;;;;5019836;28;20049;-83
2022/11/08 14:37:27;;;;;;;70.35;39.00;;;;;;;;;;5018553;28;20050;-85
2022/11/08 14:40:18;;;;;;;76.45;41.05;;;;;;;;;;5020277;28;20050;-82
2022/11/08 14:43:03;;;;;;;76.00;40.03;;;;;;;;;;5017560;28;20046;-83
2022/11/08 14:45:49;;;;;;;72.97;40.50;;;;;;;;;;5017738;28;20042;-83
2022/11/08 14:48:34;;;;;;;51.97;30.45;;;;;;;;;;5017107;28;20053;-83
2022/11/08 14:51:20;;;;;;;44.03;25.52;;;;;;;;;;5018074;28;20049;-84
2022/11/08 14:54:24;;;;;;;46.17;28.35;;;;;;;;;;5017439;28;20038;-84
2022/11/08 14:57:28;;;;;;;52.83;29.55;;;;;;;;;;5022353;28;20046;-81
2022/11/08 15:00:16;;;;;;;52.92;28.75;;;;;;;;;;5017363;28;20049;-81
2022/11/08 15:03:05;;;;;;;84.30;46.15;;;;;;;;;;5016875;28;20050;-81
2022/11/08 15:05:56;;;;;;;65.93;39.75;;;;;;;;;;5016804;28;20055;-82
2022/11/08 15:08:51;;;;;;;96.30;50.75;;;;;;;;;;5018858;28;20046;-81
2022/11/08 15:11:40;;;;;;;77.57;41.58;;;;;;;;;;5023190;28;20057;-80
2022/11/08 15:14:29;;;;;;;105.10;50.67;;;;;;;;;;5017153;28;20045;-81
2022/11/08 15:17:32;;;;;;;113.10;57.40;;;;;;;;;;5016535;28;20045;-81
2022/11/08 15:20:21;;;;;;;139.27;75.55;;;;;;;;;;5024472;28;20045;-82
2022/11/08 15:23:33;;;;;;;223.82;117.55;;;;;;;;;;5027498;28;20045;-84
2022/11/08 15:26:21;;;;;;;165.68;84.03;;;;;;;;;;5021331;28;20053;-82
2022/11/08 15:29:18;;;;;;;130.52;66.65;;;;;;;;;;5022248;28;20045;-81
2022/11/08 15:32:04;;;;;;;122.63;59.55;;;;;;;;;;5023021;28;20046;-82
2022/11/08 15:34:54;;;;;;;161.32;76.82;;;;;;;;;;5022868;28;20042;-83
2022/11/08 15:37:41;;;;;;;166.73;92.57;;;;;;;;;;5021583;28;20046;-79
2022/11/08 15:40:29;;;;;;;167.13;90.03;;;;;;;;;;5019175;28;20049;-81
2022/11/08 15:43:37;;;;;;;235.18;136.52;;;;;;;;;;5016675;28;20050;-81
2022/11/08 15:46:26;;;;;;;196.35;119.05;;;;;;;;;;5015765;28;20049;-81
2022/11/08 15:49:18;;;;;;;297.67;188.13;;;;;;;;;;5021855;28;20046;-81
2022/11/08 15:52:04;;;;;;;172.35;95.90;;;;;;;;;;5025396;28;20041;-80
2022/11/08 15:54:49;;;;;;;151.95;85.78;;;;;;;;;;5016730;28;20049;-80
2022/11/08 15:57:40;;;;;;;143.35;77.50;;;;;;;;;;5016346;28;20376;-80
2022/11/08 16:00:35;;;;;;;118.93;60.70;;;;;;;;;;5016086;28;20043;-80
2022/11/08 16:03:21;;;;;;;107.65;58.25;;;;;;;;;;5015752;28;20054;-80
2022/11/08 16:06:10;;;;;;;73.78;40.33;;;;;;;;;;5014116;28;20050;-79
2022/11/08 16:08:57;;;;;;;79.88;43.33;;;;;;;;;;5015909;28;20053;-80
2022/11/08 16:11:44;;;;;;;60.28;35.70;;;;;;;;;;5015990;28;20045;-80
2022/11/08 16:14:29;;;;;;;58.92;36.97;;;;;;;;;;5015706;28;20050;-80
2022/11/08 16:17:15;;;;;;;62.15;36.13;;;;;;;;;;5016043;28;20046;-79
2022/11/08 16:20:00;;;;;;;68.82;37.33;;;;;;;;;;5015676;28;20045;-80
2022/11/08 16:22:46;;;;;;;56.47;32.38;;;;;;;;;;5015913;28;20460;-80
2022/11/08 16:25:39;;;;;;;48.97;29.92;;;;;;;;;;5021421;28;20042;-80
2022/11/08 16:28:33;;;;;;;68.80;35.42;;;;;;;;;;5015673;28;20045;-80
2022/11/08 16:31:23;;;;;;;134.40;88.20;;;;;;;;;;5015802;28;20050;-80
2022/11/08 16:34:10;;;;;;;190.27;115.72;;;;;;;;;;5015660;28;20053;-83
2022/11/08 16:37:00;;;;;;;353.63;205.57;;;;;;;;;;5023861;28;20484;-84
2022/11/08 16:39:46;;;;;;;286.27;149.43;;;;;;;;;;5015019;28;20042;-84
2022/11/08 16:42:31;;;;;;;217.15;121.97;;;;;;;;;;5015400;28;20042;-85
2022/11/08 16:45:19;;;;;;;141.90;74.55;;;;;;;;;;5015109;28;20042;-85
2022/11/08 16:48:05;;;;;;;110.97;52.83;;;;;;;;;;5021165;28;20045;-83
2022/11/08 16:51:00;;;;;;;107.28;57.20;;;;;;;;;;5014872;28;20049;-83